Time;durP1;ratioP1;P1;durP2;ratioP2;P2;SDS_P1;SDS_P2;PMS_P1;PMS_P2;Temp;Humidity;BMP_temperature;BMP_pressure;BME280_temperature;BME280_humidity;BME280_pressure;Samples;Min_cycle;Max_cycle;Signal;HPM_P1;HPM_P2
2023/03/29 00:00:48;;;;;;;7.10;3.15;;;6.90;99.90;;;;;;5053435;28;20051;-59
2023/03/29 00:03:13;;;;;;;5.55;3.05;;;7.70;99.90;;;;;;5053315;28;20077;-60
2023/03/29 00:05:40;;;;;;;6.53;3.67;;;7.80;99.90;;;;;;5053197;28;20072;-59
2023/03/29 00:08:06;;;;;;;6.13;3.40;;;7.20;99.90;;;;;;5053439;28;20056;-60
2023/03/29 00:10:32;;;;;;;8.93;3.92;;;7.30;99.90;;;;;;5052804;28;20140;-59
2023/03/29 00:12:58;;;;;;;6.63;3.95;;;7.40;99.90;;;;;;5053258;28;20041;-60
2023/03/29 00:15:24;;;;;;;8.40;3.75;;;6.70;99.90;;;;;;5052144;28;20037;-60
2023/03/29 00:17:51;;;;;;;5.03;3.90;;;7.60;99.90;;;;;;5042337;28;20052;-59
2023/03/29 00:20:16;;;;;;;5.55;3.17;;;6.70;99.90;;;;;;5037143;28;20108;-59
2023/03/29 00:22:43;;;;;;;5.55;3.28;;;6.70;99.90;;;;;;5044485;28;20184;-59
2023/03/29 00:25:12;;;;;;;4.63;3.60;;;7.10;99.90;;;;;;5052428;28;20116;-60
2023/03/29 00:27:39;;;;;;;4.10;2.97;;;7.40;99.90;;;;;;5046049;28;20041;-59
2023/03/29 00:30:06;;;;;;;5.15;3.17;;;7.20;99.90;;;;;;5032982;28;20099;-59
2023/03/29 00:32:31;;;;;;;6.88;4.20;;;6.80;99.90;;;;;;5042048;28;20037;-59
2023/03/29 00:35:03;;;;;;;7.40;4.30;;;7.00;99.90;;;;;;5052799;28;20056;-59
2023/03/29 00:37:29;;;;;;;8.77;4.50;;;7.40;99.90;;;;;;5052662;28;20049;-59
2023/03/29 00:39:55;;;;;;;6.68;4.45;;;6.70;99.90;;;;;;5052878;28;20539;-59
2023/03/29 00:42:23;;;;;;;3.65;2.95;;;7.10;99.90;;;;;;5042155;28;20033;-60
2023/03/29 00:45:04;;;;;;;4.20;2.90;;;7.70;99.90;;;;;;5048310;28;20133;-59
2023/03/29 00:47:43;;;;;;;5.13;3.40;;;7.80;99.90;;;;;;5046167;28;20036;-60
2023/03/29 00:50:17;;;;;;;3.88;2.92;;;6.70;99.90;;;;;;5050567;28;20129;-59
2023/03/29 00:52:49;;;;;;;8.48;4.45;;;7.80;99.90;;;;;;5062783;28;20061;-60
2023/03/29 00:55:20;;;;;;;5.32;3.60;;;7.70;99.90;;;;;;5052554;28;20049;-59
2023/03/29 00:57:48;;;;;;;4.45;3.67;;;7.30;99.90;;;;;;5052265;28;20155;-60
2023/03/29 01:00:19;;;;;;;5.75;3.95;;;6.90;99.90;;;;;;5051167;28;20044;-60
2023/03/29 01:02:49;;;;;;;6.70;3.88;;;6.80;99.90;;;;;;5052606;28;20514;-60
2023/03/29 01:05:21;;;;;;;4.93;3.40;;;7.30;99.90;;;;;;5052563;28;20041;-60
2023/03/29 01:07:56;;;;;;;5.75;3.30;;;6.90;99.90;;;;;;5052141;28;20037;-60
2023/03/29 01:10:43;;;;;;;6.10;3.75;;;7.90;99.90;;;;;;5052293;28;20055;-60
2023/03/29 01:13:19;;;;;;;11.52;3.47;;;7.00;99.90;;;;;;5052214;28;20060;-60
2023/03/29 01:15:45;;;;;;;;;;;7.10;99.90;;;;;;5032768;28;20450;-60
2023/03/29 01:18:11;;;;;;;5.63;3.58;;;7.10;99.90;;;;;;5047930;28;19920;-60
2023/03/29 01:21:05;;;;;;;9.27;2.92;;;7.10;99.90;;;;;;5052173;28;20039;-59
2023/03/29 01:24:05;;;;;;;5.78;2.90;;;7.80;99.90;;;;;;5039630;28;20065;-60
2023/03/29 01:26:42;;;;;;;4.32;2.58;;;7.10;99.90;;;;;;5041062;28;20041;-60
2023/03/29 01:29:19;;;;;;;6.65;3.10;;;7.10;99.90;;;;;;5051832;28;20095;-60
2023/03/29 01:31:51;;;;;;;3.53;2.83;;;7.90;99.90;;;;;;5051328;28;20052;-60
2023/03/29 01:34:28;;;;;;;6.80;3.60;;;7.80;99.90;;;;;;5051929;28;20036;-59
2023/03/29 01:37:17;;;;;;;6.68;2.97;;;7.20;99.90;;;;;;5051196;28;20044;-60
2023/03/29 01:39:43;;;;;;;4.05;2.90;;;7.30;99.90;;;;;;5048428;28;20052;-60
2023/03/29 01:42:43;;;;;;;4.53;3.20;;;7.60;99.90;;;;;;5049253;28;20029;-60
2023/03/29 01:45:35;;;;;;;4.38;3.10;;;7.40;99.90;;;;;;5051327;28;20055;-60
2023/03/29 01:48:15;;;;;;;6.93;2.97;;;7.30;99.90;;;;;;5031949;28;20052;-59
2023/03/29 01:50:46;;;;;;;4.85;2.90;;;7.80;99.90;;;;;;5032398;28;20406;-60
2023/03/29 01:53:35;;;;;;;3.03;2.72;;;7.40;99.90;;;;;;5051574;28;20046;-59
2023/03/29 01:56:11;;;;;;;7.82;3.25;;;7.50;99.90;;;;;;5051285;28;20087;-60
2023/03/29 01:58:43;;;;;;;6.03;3.83;;;7.60;99.90;;;;;;5045886;28;20049;-59
2023/03/29 02:01:12;;;;;;;6.57;3.03;;;7.10;99.90;;;;;;5034008;28;20036;-59
2023/03/29 02:03:41;;;;;;;5.05;3.05;;;7.50;99.90;;;;;;5034369;28;20041;-60
2023/03/29 02:06:11;;;;;;;4.70;3.13;;;7.70;99.90;;;;;;5034931;28;20037;-60
2023/03/29 02:08:41;;;;;;;11.02;3.47;;;7.00;99.90;;;;;;5047310;28;20044;-61
2023/03/29 02:11:07;;;;;;;4.60;2.70;;;7.20;99.90;;;;;;5034612;28;20040;-60
2023/03/29 02:13:34;;;;;;;5.80;3.08;;;7.10;99.90;;;;;;5051196;28;20044;-60
2023/03/29 02:16:02;;;;;;;6.35;3.20;;;7.10;99.90;;;;;;5050668;28;20414;-59
2023/03/29 02:18:29;;;;;;;4.85;2.80;;;7.10;99.90;;;;;;5044929;28;20041;-60
2023/03/29 02:20:56;;;;;;;5.63;3.22;;;7.10;99.90;;;;;;5044629;28;20079;-60
2023/03/29 02:23:33;;;;;;;5.47;3.38;;;7.70;99.90;;;;;;5050624;28;20414;-60
2023/03/29 02:26:01;;;;;;;4.53;2.55;;;7.60;99.90;;;;;;5050914;28;20041;-60
2023/03/29 02:28:28;;;;;;;7.25;2.97;;;7.70;99.90;;;;;;5050089;28;20049;-60
2023/03/29 02:31:01;;;;;;;8.75;2.72;;;7.80;99.90;;;;;;5047861;28;20044;-60
2023/03/29 02:33:47;;;;;;;6.57;3.15;;;7.60;99.90;;;;;;5043888;28;20132;-60
2023/03/29 02:36:41;;;;;;;10.13;3.60;;;7.80;99.90;;;;;;5032700;28;20048;-60
2023/03/29 02:39:12;;;;;;;8.07;3.63;;;7.30;99.90;;;;;;5050620;28;20393;-60
2023/03/29 02:41:41;;;;;;;5.63;3.20;;;7.20;99.90;;;;;;5040621;28;20041;-59
2023/03/29 02:44:09;;;;;;;6.88;3.30;;;7.20;99.90;;;;;;5030483;28;20514;-59
2023/03/29 02:46:36;;;;;;;3.92;3.25;;;7.50;99.90;;;;;;5035471;28;20033;-60
2023/03/29 02:49:04;;;;;;;6.80;3.55;;;7.10;99.90;;;;;;5037188;28;20063;-60
2023/03/29 02:51:32;;;;;;;5.07;3.50;;;7.90;99.90;;;;;;5035139;28;20455;-59
2023/03/29 02:54:11;;;;;;;3.78;2.60;;;7.60;99.90;;;;;;5049696;28;20037;-60
2023/03/29 02:56:55;;;;;;;8.48;3.97;;;8.00;99.90;;;;;;5030687;28;20056;-60
2023/03/29 02:59:21;;;;;;;5.03;3.92;;;7.70;99.90;;;;;;5032928;28;20037;-59
2023/03/29 03:01:48;;;;;;;6.43;4.13;;;7.50;99.90;;;;;;5048580;28;20041;-59
2023/03/29 03:04:14;;;;;;;5.88;4.15;;;7.30;99.90;;;;;;5033782;28;20038;-60
2023/03/29 03:06:40;;;;;;;7.60;3.40;;;7.70;99.90;;;;;;5050553;28;20094;-60
2023/03/29 03:09:06;;;;;;;8.95;3.80;;;8.00;99.90;;;;;;5050409;28;20418;-59
2023/03/29 03:11:32;;;;;;;6.20;3.33;;;7.90;99.90;;;;;;5042280;28;20139;-60
2023/03/29 03:13:58;;;;;;;5.50;3.60;;;8.00;99.90;;;;;;5030206;28;20049;-60
2023/03/29 03:16:25;;;;;;;8.82;4.28;;;8.00;99.90;;;;;;5030373;28;20080;-60
2023/03/29 03:18:51;;;;;;;7.38;4.00;;;7.70;99.90;;;;;;5030333;28;20037;-60
2023/03/29 03:21:19;;;;;;;8.40;4.70;;;8.00;99.90;;;;;;5031192;28;20037;-60
2023/03/29 03:23:47;;;;;;;7.57;4.03;;;8.00;99.90;;;;;;5029933;28;20053;-60
2023/03/29 03:26:14;;;;;;;6.55;3.78;;;7.90;99.90;;;;;;5044675;28;20503;-60
2023/03/29 03:28:39;;;;;;;6.80;3.83;;;8.10;99.90;;;;;;5049864;28;20381;-60
2023/03/29 03:31:05;;;;;;;8.48;4.95;;;8.10;99.90;;;;;;5046496;28;20045;-59
2023/03/29 03:33:31;;;;;;;8.75;5.30;;;7.60;99.90;;;;;;5049181;28;20068;-60
2023/03/29 03:36:03;;;;;;;10.68;5.75;;;7.60;99.90;;;;;;5049781;28;20064;-59
2023/03/29 03:38:29;;;;;;;9.73;5.80;;;7.50;99.90;;;;;;5049818;28;20053;-60
2023/03/29 03:40:56;;;;;;;8.05;5.88;;;7.50;99.90;;;;;;5047544;28;20486;-60
2023/03/29 03:43:22;;;;;;;15.13;7.40;;;7.50;99.90;;;;;;5050076;28;20037;-60
2023/03/29 03:45:48;;;;;;;11.68;5.65;;;7.50;99.90;;;;;;5049784;28;20040;-60
2023/03/29 03:48:14;;;;;;;11.43;5.28;;;7.90;99.90;;;;;;5035059;28;20045;-60
2023/03/29 03:50:39;;;;;;;9.07;5.85;;;7.90;99.90;;;;;;5040945;28;20041;-60
2023/03/29 03:53:05;;;;;;;12.07;6.68;;;8.30;99.90;;;;;;5049764;28;20106;-60
2023/03/29 03:55:32;;;;;;;10.38;6.00;;;8.20;99.90;;;;;;5049490;28;20047;-60
2023/03/29 03:57:58;;;;;;;10.63;6.55;;;8.00;99.90;;;;;;5050030;28;20037;-60
2023/03/29 04:00:24;;;;;;;11.20;6.60;;;8.00;99.90;;;;;;5048328;28;20118;-60
2023/03/29 04:02:52;;;;;;;18.48;8.13;;;7.80;99.90;;;;;;5033377;28;20122;-59
2023/03/29 04:05:19;;;;;;;17.17;7.53;;;8.20;99.90;;;;;;5046495;28;20037;-60
2023/03/29 04:07:45;;;;;;;11.65;6.30;;;8.00;99.90;;;;;;5049607;28;20045;-60
2023/03/29 04:10:11;;;;;;;8.68;5.65;;;8.20;99.90;;;;;;5049316;28;20083;-60
2023/03/29 04:12:37;;;;;;;11.70;7.15;;;7.50;99.90;;;;;;5037020;28;20076;-60
2023/03/29 04:15:04;;;;;;;13.00;6.75;;;8.40;99.90;;;;;;5035865;28;20041;-59
2023/03/29 04:17:30;;;;;;;8.80;6.25;;;8.40;99.90;;;;;;5049652;28;20070;-60
2023/03/29 04:19:56;;;;;;;14.85;7.57;;;8.40;99.90;;;;;;5039148;28;20491;-60
2023/03/29 04:22:24;;;;;;;12.90;7.53;;;8.20;99.90;;;;;;5045475;28;20111;-61
2023/03/29 04:24:50;;;;;;;14.10;6.93;;;8.30;99.90;;;;;;5048262;28;20053;-60
2023/03/29 04:27:16;;;;;;;14.02;6.90;;;7.50;99.90;;;;;;5053311;28;20049;-60
2023/03/29 04:29:43;;;;;;;10.95;7.25;;;7.70;99.90;;;;;;5053103;28;20102;-59
2023/03/29 04:32:10;;;;;;;11.55;6.95;;;7.50;99.90;;;;;;5046451;28;20042;-60
2023/03/29 04:34:36;;;;;;;12.63;7.78;;;7.50;99.90;;;;;;5037641;28;20060;-60
2023/03/29 04:37:08;;;;;;;14.65;8.35;;;7.80;99.90;;;;;;5052325;28;20037;-60
2023/03/29 04:39:35;;;;;;;15.80;9.38;;;7.50;99.90;;;;;;5052852;28;20115;-60
2023/03/29 04:42:02;;;;;;;17.42;10.10;;;8.40;99.90;;;;;;5046736;28;20033;-60
2023/03/29 04:44:28;;;;;;;20.13;8.95;;;8.60;99.90;;;;;;5033734;28;20479;-60
2023/03/29 04:46:54;;;;;;;13.45;7.55;;;7.40;99.90;;;;;;5047651;28;20037;-60
2023/03/29 04:49:19;;;;;;;14.18;8.27;;;7.50;99.90;;;;;;5046812;28;20045;-60
2023/03/29 04:51:45;;;;;;;12.15;7.72;;;8.40;99.90;;;;;;5052516;28;20044;-59
2023/03/29 04:54:11;;;;;;;15.20;8.52;;;7.30;99.90;;;;;;5049728;28;20048;-60
2023/03/29 04:56:36;;;;;;;11.45;9.23;;;7.70;99.90;;;;;;5045265;28;20076;-60
2023/03/29 04:59:02;;;;;;;13.95;8.52;;;8.30;99.90;;;;;;5042632;28;20079;-60
2023/03/29 05:01:28;;;;;;;17.67;9.80;;;8.20;99.90;;;;;;5041384;28;20037;-60
2023/03/29 05:03:54;;;;;;;18.73;10.02;;;7.20;99.90;;;;;;5040105;28;20107;-60
2023/03/29 05:06:20;;;;;;;11.52;7.57;;;7.30;99.90;;;;;;5046131;28;20395;-60
2023/03/29 05:08:45;;;;;;;13.70;7.63;;;7.30;99.90;;;;;;5037850;28;20041;-60
2023/03/29 05:11:12;;;;;;;16.52;7.45;;;8.60;99.90;;;;;;5037514;28;20049;-60
2023/03/29 05:13:38;;;;;;;12.93;6.90;;;7.50;99.90;;;;;;5037864;28;20501;-60
2023/03/29 05:16:05;;;;;;;14.43;8.10;;;8.40;99.90;;;;;;5045945;28;20163;-60
2023/03/29 05:18:31;;;;;;;17.63;9.52;;;8.60;99.90;;;;;;5042824;28;20040;-60
2023/03/29 05:20:58;;;;;;;16.63;9.05;;;7.80;99.90;;;;;;5040460;28;20059;-60
2023/03/29 05:23:24;;;;;;;14.30;8.35;;;7.70;99.90;;;;;;5038086;28;20465;-60
2023/03/29 05:25:52;;;;;;;12.18;7.70;;;8.30;99.90;;;;;;5040404;28;20032;-60
2023/03/29 05:28:18;;;;;;;13.32;7.45;;;8.40;99.90;;;;;;5047453;28;20084;-60
2023/03/29 05:30:44;;;;;;;13.40;8.13;;;7.70;99.90;;;;;;5034421;28;20099;-60
2023/03/29 05:33:10;;;;;;;10.57;7.47;;;8.60;99.90;;;;;;5038151;28;20040;-60
2023/03/29 05:35:36;;;;;;;16.83;8.57;;;7.30;99.90;;;;;;5033039;28;20088;-60
2023/03/29 05:38:03;;;;;;;10.05;7.40;;;8.10;99.90;;;;;;5043436;28;20502;-60
2023/03/29 05:40:30;;;;;;;16.02;9.13;;;7.50;99.90;;;;;;5036669;28;20083;-59
2023/03/29 05:42:56;;;;;;;14.20;8.13;;;7.40;99.90;;;;;;5033700;28;21537;-60
2023/03/29 05:45:23;;;;;;;14.57;9.18;;;8.50;99.90;;;;;;5048736;28;20069;-60
2023/03/29 05:47:49;;;;;;;21.25;8.15;;;8.40;99.90;;;;;;5050910;28;20086;-60
2023/03/29 05:50:15;;;;;;;12.05;7.78;;;7.70;99.90;;;;;;5048210;28;20490;-60
2023/03/29 05:52:41;;;;;;;13.98;7.47;;;8.20;99.90;;;;;;5042684;28;20095;-60
2023/03/29 05:55:08;;;;;;;14.80;9.68;;;7.90;99.90;;;;;;5038663;28;20037;-60
2023/03/29 05:57:37;;;;;;;15.50;8.52;;;8.70;99.90;;;;;;5034973;28;20037;-60
2023/03/29 06:00:15;;;;;;;14.48;9.15;;;8.00;99.90;;;;;;5042515;28;20052;-60
2023/03/29 06:02:41;;;;;;;14.70;8.40;;;7.80;99.90;;;;;;5041238;28;20503;-60
2023/03/29 06:05:07;;;;;;;16.58;9.27;;;8.00;99.90;;;;;;5037264;28;20044;-60
2023/03/29 06:07:33;;;;;;;13.15;7.72;;;8.40;99.90;;;;;;5041209;28;20032;-60
2023/03/29 06:09:59;;;;;;;12.38;7.22;;;8.80;99.90;;;;;;5051285;28;20060;-60
2023/03/29 06:12:25;;;;;;;10.20;7.45;;;7.70;99.90;;;;;;5048905;28;20037;-60
2023/03/29 06:14:50;;;;;;;12.88;6.95;;;8.00;99.90;;;;;;5037924;28;20107;-60
2023/03/29 06:17:16;;;;;;;14.82;8.52;;;8.00;99.90;;;;;;5035199;28;20115;-60
2023/03/29 06:19:43;;;;;;;14.60;9.77;;;7.70;99.90;;;;;;5035970;28;20044;-61
2023/03/29 06:22:08;;;;;;;16.40;9.25;;;8.10;99.90;;;;;;5031136;28;20033;-60
2023/03/29 06:24:34;;;;;;;18.95;8.73;;;8.70;99.90;;;;;;5052596;28;20060;-61
2023/03/29 06:27:00;;;;;;;13.90;8.25;;;9.10;99.90;;;;;;5042658;28;20052;-61
2023/03/29 06:29:25;;;;;;;15.23;9.07;;;8.50;99.90;;;;;;5040543;28;20029;-61
2023/03/29 06:31:53;;;;;;;11.20;8.27;;;8.00;99.90;;;;;;5041966;28;20037;-61
2023/03/29 06:34:18;;;;;;;12.82;8.10;;;9.40;99.90;;;;;;5030328;28;20045;-61
2023/03/29 06:36:44;;;;;;;11.38;7.57;;;8.10;99.90;;;;;;5038594;28;20049;-61
2023/03/29 06:39:10;;;;;;;13.88;7.38;;;9.30;99.90;;;;;;5041320;28;20518;-61
2023/03/29 06:41:35;;;;;;;14.30;8.75;;;8.20;99.90;;;;;;5041139;28;20075;-61
2023/03/29 06:44:02;;;;;;;11.88;7.63;;;9.10;99.90;;;;;;5040490;28;20076;-61
2023/03/29 06:46:28;;;;;;;12.82;8.18;;;8.70;99.90;;;;;;5031146;28;20168;-60
2023/03/29 06:48:54;;;;;;;12.50;8.85;;;9.20;99.90;;;;;;5029280;28;20120;-61
2023/03/29 06:51:21;;;;;;;14.38;8.68;;;9.20;99.90;;;;;;5039323;28;20468;-60
2023/03/29 06:53:46;;;;;;;11.77;7.13;;;8.70;99.90;;;;;;5048695;28;20041;-61
2023/03/29 06:56:12;;;;;;;10.75;7.95;;;9.40;99.90;;;;;;5035375;28;20384;-61
2023/03/29 06:58:37;;;;;;;10.85;7.18;;;8.30;99.90;;;;;;5041189;28;20537;-61
2023/03/29 07:01:05;;;;;;;14.60;9.43;;;9.00;99.90;;;;;;5037684;28;20037;-61
2023/03/29 07:03:33;;;;;;;13.82;9.25;;;9.40;99.90;;;;;;5042405;28;20376;-61
2023/03/29 07:06:08;;;;;;;15.15;9.63;;;8.90;99.90;;;;;;5032295;28;20487;-61
2023/03/29 07:08:42;;;;;;;17.13;9.63;;;8.40;99.90;;;;;;5040941;28;20047;-61
2023/03/29 07:11:11;;;;;;;14.20;8.20;;;9.40;99.90;;;;;;5043951;28;20052;-61
2023/03/29 07:13:41;;;;;;;12.38;7.85;;;9.30;99.90;;;;;;5039289;28;20124;-61
2023/03/29 07:16:11;;;;;;;12.63;7.95;;;9.60;99.90;;;;;;5036686;28;20482;-61
2023/03/29 07:18:42;;;;;;;14.95;8.82;;;8.50;99.90;;;;;;5032321;28;20498;-61
2023/03/29 07:21:10;;;;;;;16.25;8.98;;;8.50;99.90;;;;;;5047183;28;20122;-61
2023/03/29 07:23:36;;;;;;;12.55;8.18;;;9.10;99.90;;;;;;5039211;28;21879;-61
2023/03/29 07:26:02;;;;;;;10.70;8.00;;;8.50;99.90;;;;;;5041231;28;20046;-60
2023/03/29 07:28:28;;;;;;;17.50;10.25;;;9.70;99.90;;;;;;5034343;28;20040;-60
2023/03/29 07:31:04;;;;;;;13.82;9.10;;;9.80;99.90;;;;;;5031995;28;20052;-61
2023/03/29 07:33:29;;;;;;;13.68;8.88;;;9.60;99.90;;;;;;5032395;28;20076;-61
2023/03/29 07:35:56;;;;;;;15.50;8.48;;;9.70;99.90;;;;;;5046770;28;20091;-61
2023/03/29 07:38:21;;;;;;;15.80;8.82;;;9.90;99.90;;;;;;5038924;28;20045;-61
2023/03/29 07:40:47;;;;;;;14.00;8.77;;;9.70;99.90;;;;;;5034994;28;20041;-61
2023/03/29 07:43:12;;;;;;;14.80;9.00;;;9.90;99.90;;;;;;5047451;28;20037;-61
2023/03/29 07:45:41;;;;;;;15.43;9.15;;;8.70;99.90;;;;;;5061793;28;20036;-61
2023/03/29 07:48:07;;;;;;;15.63;10.68;;;10.00;99.90;;;;;;5037705;28;20045;-61
2023/03/29 07:50:33;;;;;;;18.13;11.30;;;8.80;99.90;;;;;;5040279;28;20525;-61
2023/03/29 07:53:00;;;;;;;14.82;9.27;;;8.80;99.90;;;;;;5035430;28;20132;-61
2023/03/29 07:55:25;;;;;;;12.98;8.85;;;10.20;99.90;;;;;;5031087;28;20618;-60
2023/03/29 07:57:52;;;;;;;13.20;8.13;;;8.90;99.90;;;;;;5040442;28;20041;-61
2023/03/29 08:00:18;;;;;;;14.25;9.00;;;9.40;99.90;;;;;;5044333;28;20738;-61
2023/03/29 08:02:49;;;;;;;16.13;9.13;;;10.00;99.90;;;;;;5052619;28;20037;-61
2023/03/29 08:05:16;;;;;;;15.18;8.48;;;10.00;99.90;;;;;;5050372;28;20126;-61
2023/03/29 08:07:43;;;;;;;16.23;9.20;;;9.10;99.90;;;;;;5041429;28;20056;-61
2023/03/29 08:10:15;;;;;;;14.38;8.50;;;9.20;99.90;;;;;;5039875;28;20045;-61
2023/03/29 08:12:41;;;;;;;12.93;7.75;;;9.50;99.90;;;;;;5044038;28;20049;-61
2023/03/29 08:15:08;;;;;;;19.17;8.63;;;9.20;99.90;;;;;;5051722;28;20183;-61
2023/03/29 08:17:35;;;;;;;16.02;8.18;;;9.50;99.90;;;;;;5047328;28;20136;-61
2023/03/29 08:20:01;;;;;;;13.95;8.30;;;10.40;99.90;;;;;;5036292;28;20030;-61
2023/03/29 08:22:27;;;;;;;20.20;10.23;;;10.30;99.90;;;;;;5035760;28;20037;-61
2023/03/29 08:24:53;;;;;;;15.52;9.40;;;10.50;99.90;;;;;;5041617;28;20050;-61
2023/03/29 08:27:20;;;;;;;15.43;9.35;;;9.50;99.90;;;;;;5031065;28;20049;-61
2023/03/29 08:29:45;;;;;;;13.45;9.00;;;11.50;99.90;;;;;;5037988;28;20410;-61
2023/03/29 08:32:11;;;;;;;12.05;7.82;;;10.10;99.90;;;;;;5044576;28;20029;-61
2023/03/29 08:34:37;;;;;;;13.82;8.73;;;9.40;99.90;;;;;;5043177;28;20041;-61
2023/03/29 08:37:03;;;;;;;16.20;8.65;;;9.30;99.90;;;;;;5048060;28;20574;-61
2023/03/29 08:39:30;;;;;;;13.10;6.75;;;10.50;99.90;;;;;;5039998;28;20044;-61
2023/03/29 08:42:06;;;;;;;14.18;9.65;;;10.60;99.90;;;;;;5041837;28;20450;-61
2023/03/29 08:44:53;;;;;;;13.88;9.38;;;10.60;99.90;;;;;;5038539;28;20056;-62
2023/03/29 08:47:35;;;;;;;15.35;9.30;;;10.60;99.90;;;;;;5051017;28;20487;-62
2023/03/29 08:50:00;;;;;;;13.90;8.70;;;9.80;99.90;;;;;;5047053;28;20068;-62
2023/03/29 08:52:26;;;;;;;13.48;7.43;;;9.40;99.90;;;;;;5032048;28;20081;-61
2023/03/29 08:54:54;;;;;;;13.57;8.15;;;9.50;99.90;;;;;;5050276;28;20071;-62
2023/03/29 08:57:25;;;;;;;15.38;8.20;;;9.50;99.90;;;;;;5049771;28;20082;-62
2023/03/29 08:59:53;;;;;;;24.65;9.00;;;9.80;99.90;;;;;;5046817;28;20030;-61
2023/03/29 09:02:24;;;;;;;19.02;9.40;;;11.00;99.90;;;;;;5031688;28;20411;-62
2023/03/29 09:04:54;;;;;;;22.75;10.15;;;9.80;99.90;;;;;;5050090;28;20128;-61
2023/03/29 09:07:19;;;;;;;18.45;9.25;;;11.00;99.90;;;;;;5039565;28;20041;-62
2023/03/29 09:09:45;;;;;;;20.20;10.13;;;10.80;99.90;;;;;;5050222;28;20376;-62
2023/03/29 09:12:33;;;;;;;20.70;8.82;;;11.10;99.90;;;;;;5031895;28;20056;-61
2023/03/29 09:15:15;;;;;;;18.38;8.95;;;10.80;99.90;;;;;;5049420;28;20486;-62
2023/03/29 09:18:04;;;;;;;18.50;9.15;;;11.40;99.90;;;;;;5050561;28;20137;-61
2023/03/29 09:20:44;;;;;;;22.25;8.23;;;10.10;99.90;;;;;;5046540;28;20545;-62
2023/03/29 09:23:21;;;;;;;17.88;9.45;;;10.20;99.90;;;;;;5043344;28;20461;-62
2023/03/29 09:26:04;;;;;;;21.23;10.30;;;10.20;99.90;;;;;;5046429;28;20037;-61
2023/03/29 09:28:58;;;;;;;25.25;10.80;;;11.30;99.90;;;;;;5042008;28;20041;-61
2023/03/29 09:31:40;;;;;;;22.05;9.88;;;10.30;99.90;;;;;;5043156;28;20048;-62
2023/03/29 09:34:13;;;;;;;21.58;10.45;;;11.30;99.90;;;;;;5048267;28;20037;-62
2023/03/29 09:36:41;;;;;;;28.42;9.88;;;11.50;99.90;;;;;;5031713;28;20107;-62
2023/03/29 09:39:12;;;;;;;19.65;9.38;;;10.90;99.90;;;;;;5049142;28;20041;-62
2023/03/29 09:41:53;;;;;;;28.73;12.90;;;11.70;99.90;;;;;;5040108;28;20577;-62
2023/03/29 09:44:22;;;;;;;23.90;11.20;;;10.80;99.90;;;;;;5043526;28;20037;-61
2023/03/29 09:47:07;;;;;;;25.42;11.55;;;11.70;99.90;;;;;;5031208;28;20503;-61
2023/03/29 09:49:38;;;;;;;28.98;11.50;;;11.80;99.90;;;;;;5031641;28;20033;-62
2023/03/29 09:52:11;;;;;;;20.60;9.25;;;11.70;99.90;;;;;;5031724;28;20036;-59
2023/03/29 09:54:37;;;;;;;19.20;10.10;;;11.90;99.90;;;;;;5046324;28;20036;-59
2023/03/29 09:57:02;;;;;;;20.50;8.68;;;11.70;99.90;;;;;;5049238;28;20043;-59
2023/03/29 09:59:28;;;;;;;23.75;11.20;;;12.00;99.90;;;;;;5029407;28;20040;-60
2023/03/29 10:02:08;;;;;;;23.48;11.93;;;11.10;99.90;;;;;;5035032;28;20487;-59
2023/03/29 10:04:34;;;;;;;30.88;13.30;;;11.00;99.90;;;;;;5041647;28;20057;-59
2023/03/29 10:07:00;;;;;;;26.58;10.82;;;12.20;99.90;;;;;;5035971;28;20045;-60
2023/03/29 10:09:28;;;;;;;22.30;11.38;;;12.40;99.90;;;;;;5042532;28;20048;-60
2023/03/29 10:11:56;;;;;;;26.02;11.20;;;12.10;99.90;;;;;;5036142;28;20044;-60
2023/03/29 10:14:40;;;;;;;27.27;11.60;;;12.70;99.90;;;;;;5041194;28;20479;-59
2023/03/29 10:17:25;;;;;;;26.58;12.00;;;12.30;99.90;;;;;;5038017;28;20061;-60
2023/03/29 10:20:01;;;;;;;24.63;11.80;;;12.80;99.90;;;;;;5039756;28;20120;-59
2023/03/29 10:22:33;;;;;;;22.67;12.60;;;11.50;99.90;;;;;;5038403;28;20045;-60
2023/03/29 10:24:59;;;;;;;24.20;11.60;;;12.30;99.90;;;;;;5042223;28;20460;-60
2023/03/29 10:27:30;;;;;;;25.00;13.20;;;11.30;99.90;;;;;;5039718;28;20028;-59
2023/03/29 10:29:58;;;;;;;29.98;12.52;;;11.60;99.90;;;;;;5040006;28;20502;-60
2023/03/29 10:32:33;;;;;;;25.38;11.27;;;12.40;99.90;;;;;;5042024;28;20406;-59
2023/03/29 10:35:16;;;;;;;18.40;9.65;;;12.70;99.90;;;;;;5040144;28;20518;-60
2023/03/29 10:37:43;;;;;;;29.17;11.77;;;12.50;99.90;;;;;;5034411;28;20565;-60
2023/03/29 10:40:30;;;;;;;25.73;11.50;;;11.80;99.90;;;;;;5032623;28;20083;-60
2023/03/29 10:43:24;;;;;;;21.27;10.75;;;12.40;99.90;;;;;;5039137;28;20517;-60
2023/03/29 10:45:54;;;;;;;19.17;8.60;;;12.90;99.90;;;;;;5036595;28;20559;-60
2023/03/29 10:48:27;;;;;;;26.75;10.98;;;11.90;99.90;;;;;;5038153;28;20125;-59
2023/03/29 10:50:56;;;;;;;28.90;10.65;;;11.30;99.90;;;;;;5037073;28;20037;-59
2023/03/29 10:53:25;;;;;;;24.40;10.85;;;13.00;99.90;;;;;;5041053;28;20411;-59
2023/03/29 10:56:15;;;;;;;21.90;10.75;;;11.80;99.90;;;;;;5042420;28;20502;-59
2023/03/29 10:59:08;;;;;;;29.25;10.63;;;11.60;99.90;;;;;;5044104;28;20060;-59
2023/03/29 11:01:40;;;;;;;25.35;10.32;;;12.80;99.90;;;;;;5034868;28;20037;-60
2023/03/29 11:04:13;;;;;;;31.52;10.07;;;11.40;99.90;;;;;;5044233;28;20041;-59
2023/03/29 11:07:13;;;;;;;19.98;9.50;;;12.60;99.90;;;;;;5039528;28;20085;-60
2023/03/29 11:09:59;;;;;;;21.15;10.65;;;11.40;99.90;;;;;;5045891;28;20670;-59
2023/03/29 11:12:33;;;;;;;;;;;12.10;99.90;;;;;;5039095;28;20507;-59
2023/03/29 11:15:36;;;;;;;22.38;9.95;;;12.90;99.90;;;;;;5047264;28;19927;-59
2023/03/29 11:18:02;;;;;;;24.67;11.63;;;12.20;99.90;;;;;;5046467;28;20406;-59
2023/03/29 11:20:57;;;;;;;21.95;12.50;;;11.70;99.90;;;;;;5035600;28;20041;-59
2023/03/29 11:23:49;;;;;;;22.08;11.40;;;11.80;99.90;;;;;;5024128;28;20369;-59
2023/03/29 11:26:33;;;;;;;22.65;10.38;;;12.20;99.90;;;;;;5047528;28;20503;-59
2023/03/29 11:29:19;;;;;;;22.98;10.20;;;12.90;99.90;;;;;;5044487;28;20043;-60
2023/03/29 11:32:17;;;;;;;27.77;12.35;;;11.70;99.90;;;;;;5038363;28;20673;-59
2023/03/29 11:34:52;;;;;;;28.15;11.88;;;12.70;99.90;;;;;;5041732;28;20053;-59
2023/03/29 11:37:49;;;;;;;36.63;15.65;;;12.20;99.90;;;;;;5047106;28;20702;-59
2023/03/29 11:40:53;;;;;;;22.52;11.93;;;12.10;99.90;;;;;;5046528;28;20041;-59
2023/03/29 11:43:33;;;;;;;30.55;12.55;;;12.50;99.90;;;;;;5041253;28;20163;-59
2023/03/29 11:46:10;;;;;;;24.98;12.18;;;12.20;99.90;;;;;;5040255;28;20099;-59
2023/03/29 11:48:45;;;;;;;32.13;14.80;;;11.80;99.90;;;;;;5043480;28;20381;-59
2023/03/29 11:51:22;;;;;;;32.03;13.15;;;13.00;99.90;;;;;;5038169;28;20037;-59
2023/03/29 11:54:13;;;;;;;27.95;12.27;;;13.30;99.90;;;;;;5038509;28;20033;-59
2023/03/29 11:56:47;;;;;;;28.95;13.38;;;13.30;99.90;;;;;;5047795;28;20044;-59
2023/03/29 11:59:21;;;;;;;27.42;12.57;;;12.80;99.90;;;;;;5060825;28;20118;-59
2023/03/29 12:01:55;;;;;;;32.05;14.32;;;12.00;99.90;;;;;;5048646;28;20108;-59
2023/03/29 12:04:30;;;;;;;35.35;14.02;;;13.30;99.90;;;;;;5038346;28;20044;-59
2023/03/29 12:07:13;;;;;;;38.03;16.95;;;13.30;99.90;;;;;;5050655;28;20040;-59
2023/03/29 12:09:43;;;;;;;27.35;12.23;;;13.20;99.90;;;;;;5049519;28;20123;-59
2023/03/29 12:12:41;;;;;;;29.17;13.20;;;12.50;99.90;;;;;;5047199;28;20060;-59
2023/03/29 12:15:11;;;;;;;32.17;16.35;;;13.60;99.90;;;;;;5051445;28;20087;-59
2023/03/29 12:17:45;;;;;;;32.95;14.80;;;13.60;99.90;;;;;;5042081;28;20045;-59
2023/03/29 12:20:25;;;;;;;34.13;16.10;;;13.40;99.90;;;;;;5042068;28;20037;-59
2023/03/29 12:22:53;;;;;;;35.30;15.82;;;13.00;99.90;;;;;;5039447;28;20053;-58
2023/03/29 12:25:25;;;;;;;33.58;17.05;;;12.90;99.90;;;;;;5039075;28;20385;-59
2023/03/29 12:28:10;;;;;;;28.55;14.50;;;12.70;99.90;;;;;;5044293;28;20409;-59
2023/03/29 12:30:42;;;;;;;26.80;14.35;;;13.30;99.90;;;;;;5040997;28;20392;-61
2023/03/29 12:33:23;;;;;;;25.27;13.32;;;12.30;99.90;;;;;;5038717;28;20045;-63
2023/03/29 12:36:26;;;;;;;25.48;13.35;;;12.70;99.90;;;;;;5046144;28;20090;-68
2023/03/29 12:39:51;;;;;;;;;;;;;;;;;;;;;
2023/03/29 12:50:49;;;;;;;22.58;14.10;;;12.40;99.90;;;;;;4917368;28;20043;-69
2023/03/29 12:53:55;;;;;;;28.75;18.08;;;12.50;99.90;;;;;;4935526;28;20521;-69
2023/03/29 13:00:41;;;;;;;31.90;19.42;;;13.60;99.90;;;;;;4831162;29;20098;-68
2023/03/29 13:03:28;;;;;;;25.27;15.40;;;12.70;99.90;;;;;;4910836;28;20098;-61
2023/03/29 13:06:03;;;;;;;22.90;13.05;;;12.90;99.90;;;;;;5039601;28;20083;-60
2023/03/29 13:08:39;;;;;;;21.73;14.18;;;13.00;99.90;;;;;;5040393;28;20048;-61
2023/03/29 13:11:09;;;;;;;;;;;12.70;99.90;;;;;;5057552;28;20402;-61
2023/03/29 13:13:40;;;;;;;21.38;13.73;;;13.80;99.90;;;;;;5040220;28;19967;-61
2023/03/29 13:16:15;;;;;;;25.13;14.70;;;14.10;99.90;;;;;;5041917;28;20140;-60
2023/03/29 13:18:55;;;;;;;18.85;11.90;;;14.30;99.90;;;;;;5042442;28;20103;-61
2023/03/29 13:21:42;;;;;;;18.30;11.68;;;13.90;99.90;;;;;;5033421;28;20033;-61